sensor_id;sensor_type;location;lat;lon;timestamp;P1;durP1;ratioP1;P2;durP2;ratioP2
29314;SDS011;16320;53.954;9.506;2024-03-29T00:01:32;0.15;;;0.15;;
29314;SDS011;16320;53.954;9.506;2024-03-29T00:03:59;0.10;;;0.10;;
29314;SDS011;16320;53.954;9.506;2024-03-29T00:06:26;0.10;;;0.10;;
29314;SDS011;16320;53.954;9.506;2024-03-29T00:08:52;0.10;;;0.10;;
29314;SDS011;16320;53.954;9.506;2024-03-29T00:11:18;0.05;;;0.05;;
29314;SDS011;16320;53.954;9.506;2024-03-29T00:13:45;0.05;;;0.05;;
29314;SDS011;16320;53.954;9.506;2024-03-29T00:16:12;0.08;;;0.08;;
29314;SDS011;16320;53.954;9.506;2024-03-29T00:18:38;0.10;;;0.10;;
29314;SDS011;16320;53.954;9.506;2024-03-29T00:21:05;0.10;;;0.10;;
29314;SDS011;16320;53.954;9.506;2024-03-29T00:23:31;0.10;;;0.10;;
29314;SDS011;16320;53.954;9.506;2024-03-29T00:25:58;0.10;;;0.10;;
29314;SDS011;16320;53.954;9.506;2024-03-29T00:28:24;0.10;;;0.10;;
29314;SDS011;16320;53.954;9.506;2024-03-29T00:30:51;0.10;;;0.10;;
29314;SDS011;16320;53.954;9.506;2024-03-29T00:33:17;0.08;;;0.08;;
29314;SDS011;16320;53.954;9.506;2024-03-29T00:35:43;0.10;;;0.10;;
29314;SDS011;16320;53.954;9.506;2024-03-29T00:38:09;0.10;;;0.10;;
29314;SDS011;16320;53.954;9.506;2024-03-29T00:40:35;0.10;;;0.10;;
29314;SDS011;16320;53.954;9.506;2024-03-29T00:43:02;0.10;;;0.10;;
29314;SDS011;16320;53.954;9.506;2024-03-29T00:45:29;0.10;;;0.10;;
29314;SDS011;16320;53.954;9.506;2024-03-29T00:47:55;0.10;;;0.10;;
29314;SDS011;16320;53.954;9.506;2024-03-29T00:50:22;0.10;;;0.10;;
29314;SDS011;16320;53.954;9.506;2024-03-29T00:52:48;0.13;;;0.13;;
29314;SDS011;16320;53.954;9.506;2024-03-29T00:55:15;0.10;;;0.10;;
29314;SDS011;16320;53.954;9.506;2024-03-29T00:57:42;0.20;;;0.20;;
29314;SDS011;16320;53.954;9.506;2024-03-29T01:00:08;0.10;;;0.10;;
29314;SDS011;16320;53.954;9.506;2024-03-29T01:02:36;0.20;;;0.20;;
29314;SDS011;16320;53.954;9.506;2024-03-29T01:05:02;0.10;;;0.10;;
29314;SDS011;16320;53.954;9.506;2024-03-29T01:07:31;0.10;;;0.10;;
29314;SDS011;16320;53.954;9.506;2024-03-29T01:09:58;0.10;;;0.10;;
29314;SDS011;16320;53.954;9.506;2024-03-29T01:12:24;0.10;;;0.10;;
29314;SDS011;16320;53.954;9.506;2024-03-29T01:14:50;0.10;;;0.10;;
29314;SDS011;16320;53.954;9.506;2024-03-29T01:17:17;0.25;;;0.25;;
29314;SDS011;16320;53.954;9.506;2024-03-29T01:19:43;3.40;;;1.65;;
29314;SDS011;16320;53.954;9.506;2024-03-29T01:22:09;6.88;;;2.08;;
29314;SDS011;16320;53.954;9.506;2024-03-29T01:24:36;7.50;;;2.72;;
29314;SDS011;16320;53.954;9.506;2024-03-29T01:27:02;11.82;;;2.75;;
29314;SDS011;16320;53.954;9.506;2024-03-29T01:29:28;4.45;;;2.70;;
29314;SDS011;16320;53.954;9.506;2024-03-29T01:31:55;5.95;;;2.78;;
29314;SDS011;16320;53.954;9.506;2024-03-29T01:34:21;6.28;;;2.97;;
29314;SDS011;16320;53.954;9.506;2024-03-29T01:36:48;6.18;;;2.83;;
29314;SDS011;16320;53.954;9.506;2024-03-29T01:39:14;8.30;;;3.30;;
29314;SDS011;16320;53.954;9.506;2024-03-29T01:41:40;7.43;;;3.00;;
29314;SDS011;16320;53.954;9.506;2024-03-29T01:44:06;8.32;;;2.85;;
29314;SDS011;16320;53.954;9.506;2024-03-29T01:46:35;11.23;;;3.67;;
29314;SDS011;16320;53.954;9.506;2024-03-29T01:49:04;7.93;;;3.17;;
29314;SDS011;16320;53.954;9.506;2024-03-29T01:51:31;9.13;;;3.47;;
29314;SDS011;16320;53.954;9.506;2024-03-29T01:54:03;8.70;;;3.75;;
29314;SDS011;16320;53.954;9.506;2024-03-29T01:56:31;7.97;;;3.33;;
29314;SDS011;16320;53.954;9.506;2024-03-29T01:59:01;7.05;;;2.53;;
29314;SDS011;16320;53.954;9.506;2024-03-29T02:01:30;12.40;;;3.22;;
29314;SDS011;16320;53.954;9.506;2024-03-29T02:03:58;8.82;;;2.97;;
29314;SDS011;16320;53.954;9.506;2024-03-29T02:06:26;6.55;;;2.65;;
29314;SDS011;16320;53.954;9.506;2024-03-29T02:08:53;6.05;;;2.60;;
29314;SDS011;16320;53.954;9.506;2024-03-29T02:11:21;11.82;;;2.90;;
29314;SDS011;16320;53.954;9.506;2024-03-29T02:13:49;9.73;;;3.25;;
29314;SDS011;16320;53.954;9.506;2024-03-29T02:16:17;4.85;;;2.53;;
29314;SDS011;16320;53.954;9.506;2024-03-29T02:18:45;7.72;;;2.45;;
29314;SDS011;16320;53.954;9.506;2024-03-29T02:21:13;8.73;;;2.70;;
29314;SDS011;16320;53.954;9.506;2024-03-29T02:23:41;13.35;;;2.72;;
29314;SDS011;16320;53.954;9.506;2024-03-29T02:26:11;10.38;;;2.97;;
29314;SDS011;16320;53.954;9.506;2024-03-29T02:28:39;9.05;;;2.33;;
29314;SDS011;16320;53.954;9.506;2024-03-29T02:31:06;6.78;;;2.42;;
29314;SDS011;16320;53.954;9.506;2024-03-29T02:33:34;7.25;;;2.25;;
29314;SDS011;16320;53.954;9.506;2024-03-29T02:36:01;7.32;;;2.55;;
29314;SDS011;16320;53.954;9.506;2024-03-29T02:38:29;5.07;;;2.30;;
29314;SDS011;16320;53.954;9.506;2024-03-29T02:40:56;8.90;;;2.67;;
29314;SDS011;16320;53.954;9.506;2024-03-29T02:43:23;6.47;;;2.35;;
29314;SDS011;16320;53.954;9.506;2024-03-29T02:45:50;5.55;;;2.45;;
29314;SDS011;16320;53.954;9.506;2024-03-29T02:48:16;9.15;;;2.67;;
29314;SDS011;16320;53.954;9.506;2024-03-29T02:50:43;6.05;;;2.08;;
29314;SDS011;16320;53.954;9.506;2024-03-29T02:53:09;3.60;;;1.95;;
29314;SDS011;16320;53.954;9.506;2024-03-29T02:55:37;5.68;;;1.85;;
29314;SDS011;16320;53.954;9.506;2024-03-29T02:58:03;4.45;;;1.88;;
29314;SDS011;16320;53.954;9.506;2024-03-29T03:00:30;7.22;;;2.00;;
29314;SDS011;16320;53.954;9.506;2024-03-29T03:02:57;8.60;;;1.83;;
29314;SDS011;16320;53.954;9.506;2024-03-29T03:05:24;9.38;;;2.20;;
29314;SDS011;16320;53.954;9.506;2024-03-29T03:07:51;6.68;;;1.73;;
29314;SDS011;16320;53.954;9.506;2024-03-29T03:10:35;7.22;;;2.67;;
29314;SDS011;16320;53.954;9.506;2024-03-29T03:13:20;4.63;;;1.67;;
29314;SDS011;16320;53.954;9.506;2024-03-29T03:15:47;7.78;;;1.92;;
29314;SDS011;16320;53.954;9.506;2024-03-29T03:18:14;7.68;;;1.88;;
29314;SDS011;16320;53.954;9.506;2024-03-29T03:20:41;3.45;;;2.00;;
29314;SDS011;16320;53.954;9.506;2024-03-29T03:23:07;4.03;;;1.80;;
29314;SDS011;16320;53.954;9.506;2024-03-29T03:25:35;5.35;;;2.10;;
29314;SDS011;16320;53.954;9.506;2024-03-29T03:28:01;12.10;;;3.08;;
29314;SDS011;16320;53.954;9.506;2024-03-29T03:30:28;6.07;;;1.98;;
29314;SDS011;16320;53.954;9.506;2024-03-29T03:32:58;6.95;;;2.28;;
29314;SDS011;16320;53.954;9.506;2024-03-29T03:35:25;7.45;;;1.52;;
29314;SDS011;16320;53.954;9.506;2024-03-29T03:37:51;8.73;;;2.00;;
29314;SDS011;16320;53.954;9.506;2024-03-29T03:40:18;11.48;;;2.45;;
29314;SDS011;16320;53.954;9.506;2024-03-29T03:42:45;7.43;;;2.45;;
29314;SDS011;16320;53.954;9.506;2024-03-29T03:45:12;5.53;;;2.15;;
29314;SDS011;16320;53.954;9.506;2024-03-29T03:47:39;4.53;;;1.70;;
29314;SDS011;16320;53.954;9.506;2024-03-29T03:50:07;7.90;;;1.40;;
29314;SDS011;16320;53.954;9.506;2024-03-29T03:52:34;5.60;;;1.50;;
29314;SDS011;16320;53.954;9.506;2024-03-29T03:55:01;11.13;;;1.50;;
29314;SDS011;16320;53.954;9.506;2024-03-29T03:57:28;12.40;;;1.77;;
29314;SDS011;16320;53.954;9.506;2024-03-29T03:59:55;5.78;;;1.35;;
29314;SDS011;16320;53.954;9.506;2024-03-29T04:02:21;7.15;;;1.45;;
29314;SDS011;16320;53.954;9.506;2024-03-29T04:04:49;7.28;;;1.60;;
29314;SDS011;16320;53.954;9.506;2024-03-29T04:07:15;4.63;;;1.45;;
29314;SDS011;16320;53.954;9.506;2024-03-29T04:09:42;5.60;;;1.15;;
29314;SDS011;16320;53.954;9.506;2024-03-29T04:12:08;5.35;;;1.52;;
29314;SDS011;16320;53.954;9.506;2024-03-29T04:14:37;6.15;;;1.52;;
29314;SDS011;16320;53.954;9.506;2024-03-29T04:17:05;8.02;;;1.70;;
29314;SDS011;16320;53.954;9.506;2024-03-29T04:19:32;6.18;;;1.20;;
29314;SDS011;16320;53.954;9.506;2024-03-29T04:21:58;5.65;;;1.48;;
29314;SDS011;16320;53.954;9.506;2024-03-29T04:24:25;5.05;;;1.70;;
29314;SDS011;16320;53.954;9.506;2024-03-29T04:26:54;1.33;;;0.73;;
29314;SDS011;16320;53.954;9.506;2024-03-29T04:29:22;5.32;;;1.45;;
29314;SDS011;16320;53.954;9.506;2024-03-29T04:31:48;6.95;;;2.28;;
29314;SDS011;16320;53.954;9.506;2024-03-29T04:34:16;5.10;;;1.13;;
29314;SDS011;16320;53.954;9.506;2024-03-29T04:36:42;2.65;;;1.08;;
29314;SDS011;16320;53.954;9.506;2024-03-29T04:39:10;2.28;;;1.02;;
29314;SDS011;16320;53.954;9.506;2024-03-29T04:41:37;9.73;;;1.50;;
29314;SDS011;16320;53.954;9.506;2024-03-29T04:44:04;10.75;;;2.05;;
29314;SDS011;16320;53.954;9.506;2024-03-29T04:46:33;4.47;;;1.08;;
29314;SDS011;16320;53.954;9.506;2024-03-29T04:49:00;4.00;;;1.10;;
29314;SDS011;16320;53.954;9.506;2024-03-29T04:51:28;6.72;;;1.38;;
29314;SDS011;16320;53.954;9.506;2024-03-29T04:53:56;10.35;;;1.50;;
29314;SDS011;16320;53.954;9.506;2024-03-29T04:56:23;3.92;;;0.90;;
29314;SDS011;16320;53.954;9.506;2024-03-29T04:58:50;5.65;;;1.10;;
29314;SDS011;16320;53.954;9.506;2024-03-29T05:01:17;4.20;;;1.40;;
29314;SDS011;16320;53.954;9.506;2024-03-29T05:03:44;4.05;;;1.60;;
29314;SDS011;16320;53.954;9.506;2024-03-29T05:06:11;7.95;;;1.33;;
29314;SDS011;16320;53.954;9.506;2024-03-29T05:08:39;4.00;;;1.20;;
29314;SDS011;16320;53.954;9.506;2024-03-29T05:11:06;5.20;;;1.08;;
29314;SDS011;16320;53.954;9.506;2024-03-29T05:13:34;10.45;;;1.95;;
29314;SDS011;16320;53.954;9.506;2024-03-29T05:16:05;5.07;;;1.33;;
29314;SDS011;16320;53.954;9.506;2024-03-29T05:18:32;5.80;;;1.38;;
29314;SDS011;16320;53.954;9.506;2024-03-29T05:20:59;5.07;;;1.05;;
29314;SDS011;16320;53.954;9.506;2024-03-29T05:23:26;3.50;;;1.00;;
29314;SDS011;16320;53.954;9.506;2024-03-29T05:25:55;4.93;;;1.00;;
29314;SDS011;16320;53.954;9.506;2024-03-29T05:28:22;7.97;;;0.93;;
29314;SDS011;16320;53.954;9.506;2024-03-29T05:30:49;3.72;;;1.15;;
29314;SDS011;16320;53.954;9.506;2024-03-29T05:33:16;3.17;;;1.23;;
29314;SDS011;16320;53.954;9.506;2024-03-29T05:35:43;2.72;;;0.82;;
29314;SDS011;16320;53.954;9.506;2024-03-29T05:38:11;7.75;;;1.25;;
29314;SDS011;16320;53.954;9.506;2024-03-29T05:40:38;6.10;;;1.17;;
29314;SDS011;16320;53.954;9.506;2024-03-29T05:43:05;3.03;;;0.88;;
29314;SDS011;16320;53.954;9.506;2024-03-29T05:45:33;2.33;;;1.17;;
29314;SDS011;16320;53.954;9.506;2024-03-29T05:48:00;7.35;;;1.35;;
29314;SDS011;16320;53.954;9.506;2024-03-29T05:50:27;3.90;;;1.00;;
29314;SDS011;16320;53.954;9.506;2024-03-29T05:52:54;5.47;;;1.30;;
29314;SDS011;16320;53.954;9.506;2024-03-29T05:55:24;3.90;;;0.82;;
29314;SDS011;16320;53.954;9.506;2024-03-29T05:57:51;2.58;;;1.10;;
29314;SDS011;16320;53.954;9.506;2024-03-29T06:00:19;3.92;;;1.42;;
29314;SDS011;16320;53.954;9.506;2024-03-29T06:02:46;5.35;;;1.10;;
29314;SDS011;16320;53.954;9.506;2024-03-29T06:05:14;3.90;;;0.93;;
29314;SDS011;16320;53.954;9.506;2024-03-29T06:07:41;1.98;;;0.95;;
29314;SDS011;16320;53.954;9.506;2024-03-29T06:10:09;3.83;;;0.85;;
29314;SDS011;16320;53.954;9.506;2024-03-29T06:12:36;4.38;;;1.13;;
29314;SDS011;16320;53.954;9.506;2024-03-29T06:15:07;2.65;;;0.80;;
29314;SDS011;16320;53.954;9.506;2024-03-29T06:17:53;2.65;;;0.95;;
29314;SDS011;16320;53.954;9.506;2024-03-29T06:20:21;4.45;;;1.05;;
29314;SDS011;16320;53.954;9.506;2024-03-29T06:22:49;9.98;;;1.15;;
29314;SDS011;16320;53.954;9.506;2024-03-29T06:25:19;3.92;;;1.10;;
29314;SDS011;16320;53.954;9.506;2024-03-29T06:27:46;2.33;;;0.90;;
29314;SDS011;16320;53.954;9.506;2024-03-29T06:30:14;3.42;;;1.23;;
29314;SDS011;16320;53.954;9.506;2024-03-29T06:32:42;5.18;;;0.98;;
29314;SDS011;16320;53.954;9.506;2024-03-29T06:35:10;3.78;;;0.80;;
29314;SDS011;16320;53.954;9.506;2024-03-29T06:37:39;6.72;;;0.90;;
29314;SDS011;16320;53.954;9.506;2024-03-29T06:40:07;5.78;;;1.13;;
29314;SDS011;16320;53.954;9.506;2024-03-29T06:42:36;2.05;;;1.00;;
29314;SDS011;16320;53.954;9.506;2024-03-29T06:45:05;3.28;;;1.10;;
29314;SDS011;16320;53.954;9.506;2024-03-29T06:47:32;4.38;;;1.17;;
29314;SDS011;16320;53.954;9.506;2024-03-29T06:50:00;3.72;;;0.90;;
29314;SDS011;16320;53.954;9.506;2024-03-29T06:52:36;5.45;;;1.10;;
29314;SDS011;16320;53.954;9.506;2024-03-29T06:55:04;4.28;;;0.90;;
29314;SDS011;16320;53.954;9.506;2024-03-29T06:57:32;1.63;;;0.70;;
29314;SDS011;16320;53.954;9.506;2024-03-29T07:00:01;5.43;;;1.40;;
29314;SDS011;16320;53.954;9.506;2024-03-29T07:02:29;7.88;;;1.40;;
29314;SDS011;16320;53.954;9.506;2024-03-29T07:04:57;8.07;;;1.10;;
29314;SDS011;16320;53.954;9.506;2024-03-29T07:07:31;6.22;;;0.88;;
29314;SDS011;16320;53.954;9.506;2024-03-29T07:09:58;1.45;;;0.60;;
29314;SDS011;16320;53.954;9.506;2024-03-29T07:12:26;3.20;;;0.90;;
29314;SDS011;16320;53.954;9.506;2024-03-29T07:14:53;5.22;;;1.10;;
29314;SDS011;16320;53.954;9.506;2024-03-29T07:17:21;4.25;;;0.80;;
29314;SDS011;16320;53.954;9.506;2024-03-29T07:19:48;2.83;;;0.82;;
29314;SDS011;16320;53.954;9.506;2024-03-29T07:22:16;3.03;;;0.95;;
29314;SDS011;16320;53.954;9.506;2024-03-29T07:24:44;2.70;;;1.00;;
29314;SDS011;16320;53.954;9.506;2024-03-29T07:27:14;3.83;;;0.80;;
29314;SDS011;16320;53.954;9.506;2024-03-29T07:29:43;4.63;;;0.90;;
29314;SDS011;16320;53.954;9.506;2024-03-29T07:32:11;5.35;;;1.10;;
29314;SDS011;16320;53.954;9.506;2024-03-29T07:34:38;3.03;;;0.57;;
29314;SDS011;16320;53.954;9.506;2024-03-29T07:37:05;11.25;;;2.08;;
29314;SDS011;16320;53.954;9.506;2024-03-29T07:39:35;3.08;;;0.70;;
29314;SDS011;16320;53.954;9.506;2024-03-29T07:42:02;2.95;;;1.10;;
29314;SDS011;16320;53.954;9.506;2024-03-29T07:44:29;1.95;;;0.95;;
29314;SDS011;16320;53.954;9.506;2024-03-29T07:46:57;3.70;;;1.13;;
29314;SDS011;16320;53.954;9.506;2024-03-29T07:49:24;3.00;;;0.82;;
29314;SDS011;16320;53.954;9.506;2024-03-29T07:51:51;6.07;;;1.92;;
29314;SDS011;16320;53.954;9.506;2024-03-29T07:54:19;3.13;;;0.73;;
29314;SDS011;16320;53.954;9.506;2024-03-29T07:56:47;2.78;;;1.08;;
29314;SDS011;16320;53.954;9.506;2024-03-29T07:59:14;5.18;;;0.70;;
29314;SDS011;16320;53.954;9.506;2024-03-29T08:01:44;2.50;;;0.70;;
29314;SDS011;16320;53.954;9.506;2024-03-29T08:04:12;1.83;;;0.70;;
29314;SDS011;16320;53.954;9.506;2024-03-29T08:06:39;5.35;;;1.08;;
29314;SDS011;16320;53.954;9.506;2024-03-29T08:09:06;5.05;;;0.93;;
29314;SDS011;16320;53.954;9.506;2024-03-29T08:11:35;5.38;;;0.75;;
29314;SDS011;16320;53.954;9.506;2024-03-29T08:14:02;4.88;;;0.80;;
29314;SDS011;16320;53.954;9.506;2024-03-29T08:16:29;3.97;;;0.88;;
29314;SDS011;16320;53.954;9.506;2024-03-29T08:18:56;5.55;;;0.88;;
29314;SDS011;16320;53.954;9.506;2024-03-29T08:21:24;4.35;;;1.20;;
29314;SDS011;16320;53.954;9.506;2024-03-29T08:23:52;4.18;;;0.77;;
29314;SDS011;16320;53.954;9.506;2024-03-29T08:26:20;4.63;;;0.90;;
29314;SDS011;16320;53.954;9.506;2024-03-29T08:28:49;4.13;;;0.70;;
29314;SDS011;16320;53.954;9.506;2024-03-29T08:31:17;2.42;;;0.60;;
29314;SDS011;16320;53.954;9.506;2024-03-29T08:33:44;4.32;;;0.80;;
29314;SDS011;16320;53.954;9.506;2024-03-29T08:36:11;2.00;;;0.65;;
29314;SDS011;16320;53.954;9.506;2024-03-29T08:38:38;8.15;;;0.80;;
29314;SDS011;16320;53.954;9.506;2024-03-29T08:41:08;4.07;;;0.80;;
29314;SDS011;16320;53.954;9.506;2024-03-29T08:43:36;4.07;;;0.60;;
29314;SDS011;16320;53.954;9.506;2024-03-29T08:46:04;4.18;;;0.90;;
29314;SDS011;16320;53.954;9.506;2024-03-29T08:48:34;3.53;;;0.88;;
29314;SDS011;16320;53.954;9.506;2024-03-29T08:51:05;2.97;;;0.70;;
29314;SDS011;16320;53.954;9.506;2024-03-29T08:53:32;1.95;;;0.65;;
29314;SDS011;16320;53.954;9.506;2024-03-29T08:55:59;2.80;;;0.90;;
29314;SDS011;16320;53.954;9.506;2024-03-29T08:58:27;2.80;;;0.63;;
29314;SDS011;16320;53.954;9.506;2024-03-29T09:00:54;2.58;;;0.70;;
29314;SDS011;16320;53.954;9.506;2024-03-29T09:03:23;7.20;;;1.00;;
29314;SDS011;16320;53.954;9.506;2024-03-29T09:05:50;3.22;;;0.77;;
29314;SDS011;16320;53.954;9.506;2024-03-29T09:08:18;4.15;;;1.05;;
29314;SDS011;16320;53.954;9.506;2024-03-29T09:10:45;4.10;;;1.25;;
29314;SDS011;16320;53.954;9.506;2024-03-29T09:13:13;3.00;;;0.68;;
29314;SDS011;16320;53.954;9.506;2024-03-29T09:15:40;4.60;;;0.75;;
29314;SDS011;16320;53.954;9.506;2024-03-29T09:18:07;2.28;;;0.70;;
29314;SDS011;16320;53.954;9.506;2024-03-29T09:20:55;2.47;;;0.95;;
29314;SDS011;16320;53.954;9.506;2024-03-29T09:23:26;3.92;;;0.90;;
29314;SDS011;16320;53.954;9.506;2024-03-29T09:25:56;1.75;;;0.70;;
29314;SDS011;16320;53.954;9.506;2024-03-29T09:28:23;4.35;;;1.00;;
29314;SDS011;16320;53.954;9.506;2024-03-29T09:30:57;4.68;;;1.42;;
29314;SDS011;16320;53.954;9.506;2024-03-29T09:35:52;1.65;;;0.55;;
29314;SDS011;16320;53.954;9.506;2024-03-29T09:38:19;2.20;;;0.60;;
29314;SDS011;16320;53.954;9.506;2024-03-29T09:40:49;3.47;;;0.90;;
29314;SDS011;16320;53.954;9.506;2024-03-29T09:43:47;4.07;;;0.98;;
29314;SDS011;16320;53.954;9.506;2024-03-29T09:46:16;2.25;;;0.47;;
29314;SDS011;16320;53.954;9.506;2024-03-29T09:48:44;5.43;;;1.00;;
29314;SDS011;16320;53.954;9.506;2024-03-29T09:51:13;3.40;;;0.70;;
29314;SDS011;16320;53.954;9.506;2024-03-29T09:53:42;2.42;;;0.70;;
29314;SDS011;16320;53.954;9.506;2024-03-29T09:56:10;3.88;;;1.13;;
29314;SDS011;16320;53.954;9.506;2024-03-29T09:58:37;3.05;;;1.00;;
29314;SDS011;16320;53.954;9.506;2024-03-29T10:01:06;3.58;;;1.25;;
29314;SDS011;16320;53.954;9.506;2024-03-29T10:03:56;5.28;;;1.10;;
29314;SDS011;16320;53.954;9.506;2024-03-29T10:06:27;3.35;;;0.88;;
29314;SDS011;16320;53.954;9.506;2024-03-29T10:08:56;4.75;;;1.60;;
29314;SDS011;16320;53.954;9.506;2024-03-29T10:11:23;3.28;;;1.23;;
29314;SDS011;16320;53.954;9.506;2024-03-29T10:13:53;2.72;;;0.63;;
29314;SDS011;16320;53.954;9.506;2024-03-29T10:16:20;3.03;;;1.02;;
29314;SDS011;16320;53.954;9.506;2024-03-29T10:18:51;4.72;;;0.90;;
29314;SDS011;16320;53.954;9.506;2024-03-29T10:21:24;6.35;;;1.00;;
29314;SDS011;16320;53.954;9.506;2024-03-29T10:23:53;3.90;;;0.70;;
29314;SDS011;16320;53.954;9.506;2024-03-29T10:26:21;4.30;;;0.70;;
29314;SDS011;16320;53.954;9.506;2024-03-29T10:28:48;4.50;;;0.60;;
29314;SDS011;16320;53.954;9.506;2024-03-29T10:31:16;3.20;;;0.70;;
29314;SDS011;16320;53.954;9.506;2024-03-29T10:33:45;2.30;;;0.88;;
29314;SDS011;16320;53.954;9.506;2024-03-29T10:36:13;3.45;;;0.77;;
29314;SDS011;16320;53.954;9.506;2024-03-29T10:38:43;3.60;;;0.98;;
29314;SDS011;16320;53.954;9.506;2024-03-29T10:41:13;4.43;;;0.80;;
29314;SDS011;16320;53.954;9.506;2024-03-29T10:43:40;5.32;;;1.02;;
29314;SDS011;16320;53.954;9.506;2024-03-29T10:46:13;2.70;;;1.05;;
29314;SDS011;16320;53.954;9.506;2024-03-29T10:48:48;4.32;;;1.00;;
29314;SDS011;16320;53.954;9.506;2024-03-29T10:51:18;2.22;;;0.90;;
29314;SDS011;16320;53.954;9.506;2024-03-29T10:53:49;4.60;;;1.15;;
29314;SDS011;16320;53.954;9.506;2024-03-29T10:56:35;4.10;;;0.90;;
29314;SDS011;16320;53.954;9.506;2024-03-29T10:59:28;2.85;;;0.95;;
29314;SDS011;16320;53.954;9.506;2024-03-29T11:02:00;3.58;;;0.70;;
29314;SDS011;16320;53.954;9.506;2024-03-29T11:04:40;4.10;;;0.90;;
29314;SDS011;16320;53.954;9.506;2024-03-29T11:07:13;1.10;;;0.50;;
29314;SDS011;16320;53.954;9.506;2024-03-29T11:09:47;1.90;;;0.82;;
29314;SDS011;16320;53.954;9.506;2024-03-29T11:12:23;2.08;;;0.68;;
29314;SDS011;16320;53.954;9.506;2024-03-29T11:15:14;1.67;;;1.00;;
29314;SDS011;16320;53.954;9.506;2024-03-29T11:17:46;2.38;;;0.90;;
29314;SDS011;16320;53.954;9.506;2024-03-29T11:20:18;2.03;;;0.68;;
29314;SDS011;16320;53.954;9.506;2024-03-29T11:23:00;3.53;;;1.35;;
29314;SDS011;16320;53.954;9.506;2024-03-29T11:25:41;2.10;;;0.80;;
29314;SDS011;16320;53.954;9.506;2024-03-29T11:28:25;3.80;;;0.95;;
29314;SDS011;16320;53.954;9.506;2024-03-29T11:31:06;3.67;;;0.90;;
29314;SDS011;16320;53.954;9.506;2024-03-29T11:33:35;2.75;;;0.88;;
29314;SDS011;16320;53.954;9.506;2024-03-29T11:36:16;3.67;;;1.10;;
29314;SDS011;16320;53.954;9.506;2024-03-29T11:38:59;2.50;;;0.98;;
29314;SDS011;16320;53.954;9.506;2024-03-29T11:41:28;5.40;;;1.50;;
29314;SDS011;16320;53.954;9.506;2024-03-29T11:43:57;2.80;;;1.08;;
29314;SDS011;16320;53.954;9.506;2024-03-29T11:46:25;3.33;;;1.00;;
29314;SDS011;16320;53.954;9.506;2024-03-29T11:49:01;1.67;;;0.65;;
29314;SDS011;16320;53.954;9.506;2024-03-29T11:51:29;3.78;;;0.90;;
29314;SDS011;16320;53.954;9.506;2024-03-29T11:53:57;1.95;;;0.80;;
29314;SDS011;16320;53.954;9.506;2024-03-29T11:56:29;5.60;;;0.70;;
29314;SDS011;16320;53.954;9.506;2024-03-29T11:59:38;2.95;;;0.88;;
29314;SDS011;16320;53.954;9.506;2024-03-29T12:02:06;3.22;;;1.05;;
29314;SDS011;16320;53.954;9.506;2024-03-29T12:04:40;2.70;;;0.73;;
29314;SDS011;16320;53.954;9.506;2024-03-29T12:07:09;2.53;;;0.70;;
29314;SDS011;16320;53.954;9.506;2024-03-29T12:09:37;2.53;;;0.70;;
29314;SDS011;16320;53.954;9.506;2024-03-29T12:12:05;2.88;;;0.98;;
29314;SDS011;16320;53.954;9.506;2024-03-29T12:14:35;3.08;;;0.73;;
29314;SDS011;16320;53.954;9.506;2024-03-29T12:17:11;4.65;;;1.25;;
29314;SDS011;16320;53.954;9.506;2024-03-29T12:19:38;2.30;;;1.00;;
29314;SDS011;16320;53.954;9.506;2024-03-29T12:22:10;3.47;;;0.63;;
29314;SDS011;16320;53.954;9.506;2024-03-29T12:24:37;3.20;;;0.80;;
29314;SDS011;16320;53.954;9.506;2024-03-29T12:27:05;1.92;;;0.90;;
29314;SDS011;16320;53.954;9.506;2024-03-29T12:29:33;1.88;;;0.95;;
29314;SDS011;16320;53.954;9.506;2024-03-29T12:32:01;2.65;;;0.90;;
29314;SDS011;16320;53.954;9.506;2024-03-29T12:34:30;1.70;;;0.77;;
29314;SDS011;16320;53.954;9.506;2024-03-29T12:36:57;3.10;;;1.00;;
29314;SDS011;16320;53.954;9.506;2024-03-29T12:39:25;2.80;;;1.15;;
29314;SDS011;16320;53.954;9.506;2024-03-29T12:41:52;4.45;;;1.20;;
29314;SDS011;16320;53.954;9.506;2024-03-29T12:44:37;3.45;;;1.08;;
29314;SDS011;16320;53.954;9.506;2024-03-29T12:50:31;5.75;;;1.10;;
29314;SDS011;16320;53.954;9.506;2024-03-29T12:53:00;3.20;;;1.15;;
29314;SDS011;16320;53.954;9.506;2024-03-29T12:55:32;2.33;;;1.10;;
29314;SDS011;16320;53.954;9.506;2024-03-29T12:58:01;3.95;;;0.95;;
29314;SDS011;16320;53.954;9.506;2024-03-29T13:00:33;3.92;;;1.35;;
29314;SDS011;16320;53.954;9.506;2024-03-29T13:03:00;4.65;;;1.58;;
29314;SDS011;16320;53.954;9.506;2024-03-29T13:05:31;3.60;;;1.20;;
29314;SDS011;16320;53.954;9.506;2024-03-29T13:08:02;3.72;;;1.00;;
29314;SDS011;16320;53.954;9.506;2024-03-29T13:10:33;5.97;;;1.63;;
29314;SDS011;16320;53.954;9.506;2024-03-29T13:13:00;2.35;;;1.17;;
29314;SDS011;16320;53.954;9.506;2024-03-29T13:15:31;4.90;;;1.42;;
29314;SDS011;16320;53.954;9.506;2024-03-29T13:18:01;3.05;;;1.88;;
29314;SDS011;16320;53.954;9.506;2024-03-29T13:20:36;3.03;;;1.83;;
29314;SDS011;16320;53.954;9.506;2024-03-29T13:23:08;3.45;;;1.50;;
29314;SDS011;16320;53.954;9.506;2024-03-29T13:25:36;3.72;;;1.58;;
29314;SDS011;16320;53.954;9.506;2024-03-29T13:28:04;2.92;;;1.20;;
29314;SDS011;16320;53.954;9.506;2024-03-29T13:30:32;2.90;;;1.10;;
29314;SDS011;16320;53.954;9.506;2024-03-29T13:33:02;4.68;;;1.13;;
29314;SDS011;16320;53.954;9.506;2024-03-29T13:35:30;3.70;;;1.38;;
29314;SDS011;16320;53.954;9.506;2024-03-29T13:38:06;4.15;;;1.30;;
29314;SDS011;16320;53.954;9.506;2024-03-29T13:40:33;2.50;;;1.25;;
29314;SDS011;16320;53.954;9.506;2024-03-29T13:43:01;2.55;;;1.30;;
29314;SDS011;16320;53.954;9.506;2024-03-29T13:45:28;2.70;;;1.60;;
29314;SDS011;16320;53.954;9.506;2024-03-29T13:47:55;2.85;;;1.40;;
29314;SDS011;16320;53.954;9.506;2024-03-29T13:50:23;2.53;;;1.20;;
29314;SDS011;16320;53.954;9.506;2024-03-29T13:52:53;2.60;;;1.25;;
29314;SDS011;16320;53.954;9.506;2024-03-29T13:55:21;3.17;;;1.70;;
29314;SDS011;16320;53.954;9.506;2024-03-29T13:57:51;3.55;;;1.80;;
29314;SDS011;16320;53.954;9.506;2024-03-29T14:00:22;3.67;;;1.98;;
29314;SDS011;16320;53.954;9.506;2024-03-29T14:02:49;3.67;;;1.80;;
29314;SDS011;16320;53.954;9.506;2024-03-29T14:05:17;3.47;;;1.88;;
29314;SDS011;16320;53.954;9.506;2024-03-29T14:07:45;4.75;;;2.42;;
29314;SDS011;16320;53.954;9.506;2024-03-29T14:10:13;4.93;;;2.17;;
29314;SDS011;16320;53.954;9.506;2024-03-29T14:12:42;6.38;;;2.50;;
29314;SDS011;16320;53.954;9.506;2024-03-29T14:15:12;2.63;;;2.03;;
29314;SDS011;16320;53.954;9.506;2024-03-29T14:17:39;4.03;;;2.13;;
29314;SDS011;16320;53.954;9.506;2024-03-29T14:20:07;2.53;;;2.15;;
29314;SDS011;16320;53.954;9.506;2024-03-29T14:22:35;6.22;;;2.50;;
29314;SDS011;16320;53.954;9.506;2024-03-29T14:25:02;5.18;;;2.28;;
29314;SDS011;16320;53.954;9.506;2024-03-29T14:27:31;5.70;;;2.00;;
29314;SDS011;16320;53.954;9.506;2024-03-29T14:30:04;5.25;;;2.33;;
29314;SDS011;16320;53.954;9.506;2024-03-29T14:32:34;2.88;;;1.70;;
29314;SDS011;16320;53.954;9.506;2024-03-29T14:35:02;3.38;;;1.73;;
29314;SDS011;16320;53.954;9.506;2024-03-29T14:37:31;2.80;;;1.63;;
29314;SDS011;16320;53.954;9.506;2024-03-29T14:39:58;2.88;;;1.77;;
29314;SDS011;16320;53.954;9.506;2024-03-29T14:42:25;3.88;;;2.13;;
29314;SDS011;16320;53.954;9.506;2024-03-29T14:44:53;4.53;;;2.08;;
29314;SDS011;16320;53.954;9.506;2024-03-29T14:47:22;2.85;;;1.88;;
29314;SDS011;16320;53.954;9.506;2024-03-29T14:49:49;2.42;;;1.85;;
29314;SDS011;16320;53.954;9.506;2024-03-29T14:52:16;3.10;;;1.92;;
29314;SDS011;16320;53.954;9.506;2024-03-29T14:54:44;5.18;;;2.60;;
29314;SDS011;16320;53.954;9.506;2024-03-29T14:57:11;4.05;;;2.30;;
29314;SDS011;16320;53.954;9.506;2024-03-29T14:59:39;2.90;;;1.90;;
29314;SDS011;16320;53.954;9.506;2024-03-29T15:02:06;4.70;;;2.50;;
29314;SDS011;16320;53.954;9.506;2024-03-29T15:04:33;2.92;;;1.80;;